Aeroporto :
LOGIN :

Iscrizione | Disclaimer

   EN    FR    IT 

 










Sommario :    VFR   VFR Marginale   IFR   IFR Intensivo   IFR Molto Intensivo
Visibilità : 
Base nubi : 
>= 8 km
>= 3000ft
5 / 8 km
1000 / 3000 ft
1500m / 5 km
500 / 1000 ft
800 / 1500m
200 / 500 ft
< 800m
< 200 ft
Simboli :   Temporali  Nebbia  Neve Forte  Precipitazioni Forti  Vento > 20 kt
SIGMETs :   Varie  Temporali  Ghiacco  Turbolenza  Onda orograficha  Ceneri Vulcaniche







- Altitudine del aeroporto : 919 ft
- Codice IATA : IFO


UKLI - Ivano Frankivs'k

ULTIMO METAR :
  • 181300Z 06003MPS 9999 VCTS SCT030CB BKN040 25/18 Q1018 R28/090070 NOSIG

METARs OBSOLETI :
  • 181230Z 06002MPS 9999 VCTS SCT030CB BKN040 25/17 Q1018 R28/090070 NOSIG
  • 181200Z 06003MPS 9999 VCTS FEW030CB BKN040 26/18 Q1018 R28/090070 NOSIG
  • 181141Z 06003MPS 9999 VCTS FEW030CB BKN036 26/18 Q1018 R28/090070 NOSIG
  • 181130Z 06003MPS 9999 SCT033 BKN100 26/18 Q1018 R28/090070 NOSIG
  • 181100Z 09003MPS 9999 SCT033 BKN100 26/18 Q1018 R28/090070 NOSIG
  • 181030Z 14003MPS 9999 SCT033 BKN100 25/18 Q1019 R28/090070 NOSIG

TAF TAF UKLI
Valido dal 18 a 12 ore il 18 a 21 ore UTC


181102Z 1812/1821 16003MPS 9999 BKN030 TX27/1813Z TN22/1821Z
TEMPO 1812/1818 VRB08G13MPS 2100 -TSRAGR BKN007 BKN015CB
Nessun NOTAM noto per questo aeroporto.
1 SIGMET conosciuto per la FIR L'VIV (UKLV) :
 
Temporali affogati con grandine
UKLV SIGMET 1 VALID 181220/181600 UKLW
UKLV LVIV FIR/UIR EMBD TSGR OBS S OF N4920 TOP FL420 MOV ENE 20KMH NC=



MetMap, La meteo Aeronautica in un colpo d'occhio ! - Copyright ORBIFLY Dicembre 2007 - Disclaimer

ORBIFLY MET'MAP TEAM :

Programmazione e sviluppo : Alexandra Zaïnal
Concezione e sviluppo : Baudouin d'Aumeries
Co-Programmazione e sviluppo : Marc-Olivier Méhu
Supporto tecnico e logistico : Manuel Goepfert
Aiuto per la traduzione : Arnaldo La Scala

Contatto : metmap@orbifly.com




FONTI E CREDITI :

   NOAA